createdAt,value
2023-01-19T00:03:35.179Z,0.96
2023-01-19T00:06:22.388Z,1.00
2023-01-19T00:09:09.518Z,0.95
2023-01-19T00:11:56.637Z,0.89
2023-01-19T00:14:43.721Z,0.95
2023-01-19T00:17:30.884Z,1.01
2023-01-19T00:20:19.201Z,0.98
2023-01-19T00:23:08.380Z,0.76
2023-01-19T00:25:55.531Z,0.71
2023-01-19T00:28:46.028Z,1.02
2023-01-19T00:31:34.191Z,0.72
2023-01-19T00:34:21.272Z,0.82
2023-01-19T00:37:09.427Z,1.00
2023-01-19T00:39:56.560Z,0.95
2023-01-19T00:42:48.481Z,0.82
2023-01-19T00:45:35.767Z,0.80
2023-01-19T00:48:22.871Z,0.74
2023-01-19T00:51:09.965Z,0.72
2023-01-19T00:53:57.088Z,0.88
2023-01-19T00:56:44.174Z,0.88
2023-01-19T00:59:31.261Z,1.05
2023-01-19T01:02:18.635Z,1.03
2023-01-19T01:05:06.807Z,1.00
2023-01-19T01:07:53.946Z,1.03
2023-01-19T01:10:40.997Z,0.92
2023-01-19T01:13:28.384Z,1.02
2023-01-19T01:16:16.523Z,1.05
2023-01-19T01:19:03.807Z,1.16
2023-01-19T01:21:51.351Z,1.02
2023-01-19T01:24:38.458Z,0.87
2023-01-19T01:27:25.564Z,1.12
2023-01-19T01:30:14.445Z,1.13
2023-01-19T01:33:02.344Z,1.10
2023-01-19T01:35:50.586Z,1.09
2023-01-19T01:38:39.256Z,1.12
2023-01-19T01:41:27.688Z,1.12
2023-01-19T01:44:56.943Z,1.10
2023-01-19T01:47:49.929Z,1.03
2023-01-19T01:51:01.686Z,1.09
2023-01-19T01:53:55.562Z,1.11
2023-01-19T01:56:52.067Z,1.12
2023-01-19T01:59:47.823Z,0.83
2023-01-19T02:02:52.297Z,1.09
2023-01-19T02:05:39.944Z,1.07
2023-01-19T02:08:55.662Z,0.99
2023-01-19T02:12:01.828Z,0.99
2023-01-19T02:14:48.882Z,0.98
2023-01-19T02:17:35.968Z,1.00
2023-01-19T02:20:26.441Z,1.05
2023-01-19T02:23:20.976Z,0.84
2023-01-19T02:26:10.828Z,0.84
2023-01-19T02:29:25.444Z,0.94
2023-01-19T02:32:13.038Z,0.87
2023-01-19T02:35:00.231Z,0.96
2023-01-19T02:37:48.212Z,0.96
2023-01-19T02:40:37.116Z,0.92
2023-01-19T02:43:25.329Z,0.82
2023-01-19T02:46:14.023Z,0.68
2023-01-19T02:49:01.750Z,0.72
2023-01-19T02:51:49.262Z,0.91
2023-01-19T02:54:46.947Z,0.93
2023-01-19T02:57:33.971Z,0.85
2023-01-19T03:00:49.406Z,0.68
2023-01-19T03:03:58.499Z,0.78
2023-01-19T03:06:54.173Z,0.88
2023-01-19T03:09:51.095Z,0.76
2023-01-19T03:12:41.488Z,0.98
2023-01-19T03:15:47.075Z,0.90
2023-01-19T03:18:37.335Z,0.80
2023-01-19T03:21:26.824Z,0.88
2023-01-19T03:24:16.653Z,0.82
2023-01-19T03:27:12.259Z,0.99
2023-01-19T03:30:08.102Z,0.94
2023-01-19T03:33:01.584Z,0.93
2023-01-19T03:35:54.276Z,0.95
2023-01-19T03:38:43.330Z,0.74
2023-01-19T03:41:32.755Z,0.91
2023-01-19T03:44:19.848Z,1.07
2023-01-19T03:47:09.983Z,0.88
2023-01-19T03:49:58.479Z,0.83
2023-01-19T03:52:45.555Z,1.01
2023-01-19T03:55:33.501Z,0.87
2023-01-19T03:58:22.248Z,0.97
2023-01-19T04:01:09.711Z,0.92
2023-01-19T04:03:56.958Z,1.04
2023-01-19T04:06:44.283Z,1.00
2023-01-19T04:09:31.316Z,0.96
2023-01-19T04:12:18.391Z,0.90
2023-01-19T04:15:06.726Z,0.96
2023-01-19T04:17:53.780Z,0.80
2023-01-19T04:20:40.898Z,0.82
2023-01-19T04:23:28.523Z,0.94
2023-01-19T04:26:15.947Z,0.91
2023-01-19T04:29:03.111Z,1.07
2023-01-19T04:31:50.183Z,0.85
2023-01-19T04:34:37.285Z,1.02
2023-01-19T04:37:24.502Z,1.01
2023-01-19T04:40:12.373Z,0.91
2023-01-19T04:42:59.770Z,0.96
2023-01-19T04:45:47.677Z,0.99
2023-01-19T04:48:35.820Z,1.10
2023-01-19T04:51:22.954Z,0.90
2023-01-19T04:54:10.372Z,0.75
2023-01-19T04:56:57.967Z,0.88
2023-01-19T04:59:45.074Z,0.88
2023-01-19T05:02:32.397Z,0.88
2023-01-19T05:05:19.697Z,0.85
2023-01-19T05:08:06.774Z,0.76
2023-01-19T05:10:53.864Z,0.97
2023-01-19T05:13:40.943Z,0.99
2023-01-19T05:16:28.104Z,0.89
2023-01-19T05:19:15.622Z,0.79
2023-01-19T05:22:04.296Z,0.71
2023-01-19T05:24:51.368Z,0.96
2023-01-19T05:27:38.814Z,0.84
2023-01-19T05:30:26.002Z,0.60
2023-01-19T05:33:13.076Z,0.65
2023-01-19T05:36:00.321Z,0.93
2023-01-19T05:38:47.358Z,0.99
2023-01-19T05:41:34.600Z,0.93
2023-01-19T05:44:22.352Z,1.00
2023-01-19T05:47:09.483Z,0.63
2023-01-19T05:49:56.618Z,0.78
2023-01-19T05:52:43.773Z,0.74
2023-01-19T05:55:30.894Z,0.82
2023-01-19T05:58:17.964Z,1.03
2023-01-19T06:01:10.284Z,0.91
2023-01-19T06:03:57.596Z,0.87
2023-01-19T06:06:45.109Z,0.94
2023-01-19T06:09:32.727Z,1.08
2023-01-19T06:12:19.918Z,1.07
2023-01-19T06:15:07.622Z,0.97
2023-01-19T06:17:54.701Z,0.83
2023-01-19T06:20:41.722Z,0.88
2023-01-19T06:23:31.595Z,0.95
2023-01-19T06:26:18.710Z,0.99
2023-01-19T06:29:05.869Z,0.93
2023-01-19T06:31:53.224Z,0.84
2023-01-19T06:34:43.846Z,0.83
2023-01-19T06:37:31.707Z,0.89
2023-01-19T06:40:18.976Z,0.87
2023-01-19T06:43:09.628Z,1.02
2023-01-19T06:45:57.378Z,1.01
2023-01-19T06:48:44.530Z,0.85
2023-01-19T06:51:31.660Z,0.81
2023-01-19T06:54:18.696Z,0.77
2023-01-19T06:57:05.893Z,0.96
2023-01-19T06:59:52.991Z,0.93
2023-01-19T07:02:43.667Z,1.10
2023-01-19T07:05:30.799Z,0.94
2023-01-19T07:08:18.130Z,0.95
2023-01-19T07:11:25.006Z,0.88
2023-01-19T07:14:14.471Z,0.96
2023-01-19T07:17:03.125Z,1.00
2023-01-19T07:19:50.288Z,1.00
2023-01-19T07:25:13.023Z,0.87
2023-01-19T07:28:00.425Z,0.85
2023-01-19T07:30:51.518Z,0.99
2023-01-19T07:33:38.636Z,0.95
2023-01-19T07:36:25.915Z,1.11
2023-01-19T07:39:13.381Z,0.86
2023-01-19T07:42:00.507Z,0.88
2023-01-19T07:44:47.691Z,0.92
2023-01-19T07:47:34.773Z,0.88
2023-01-19T07:50:24.688Z,1.05
2023-01-19T07:53:12.096Z,1.10
2023-01-19T07:55:59.194Z,1.14
2023-01-19T07:58:47.202Z,1.08
2023-01-19T08:01:34.435Z,1.05
2023-01-19T08:04:21.857Z,1.18
2023-01-19T08:07:09.775Z,1.11
2023-01-19T08:09:56.843Z,1.11
2023-01-19T08:12:43.956Z,1.01
2023-01-19T08:15:30.995Z,1.00
2023-01-19T08:18:18.737Z,0.96
2023-01-19T08:21:06.043Z,0.96
2023-01-19T08:23:57.756Z,0.85
2023-01-19T08:26:44.825Z,0.94
2023-01-19T08:29:32.098Z,0.96
2023-01-19T08:32:19.204Z,1.10
2023-01-19T08:35:07.056Z,0.99
2023-01-19T08:37:54.064Z,1.04
2023-01-19T08:40:42.168Z,1.15
2023-01-19T08:43:29.210Z,1.19
2023-01-19T08:46:17.758Z,1.01
2023-01-19T08:49:04.891Z,0.98
2023-01-19T08:51:51.956Z,1.08
2023-01-19T08:54:38.970Z,1.21
2023-01-19T08:57:27.451Z,1.33
2023-01-19T09:00:15.099Z,1.13
2023-01-19T09:03:04.300Z,1.22
2023-01-19T09:05:51.702Z,1.12
2023-01-19T09:08:39.369Z,1.24
2023-01-19T09:11:27.634Z,1.37
2023-01-19T09:14:14.704Z,1.37
2023-01-19T09:17:01.773Z,1.20
2023-01-19T09:19:49.000Z,1.38
2023-01-19T09:22:36.318Z,1.48
2023-01-19T09:25:23.969Z,1.52
2023-01-19T09:28:14.707Z,1.62
2023-01-19T09:31:07.048Z,1.63
2023-01-19T09:33:54.102Z,1.81
2023-01-19T09:36:41.215Z,1.92
2023-01-19T09:39:28.322Z,1.99
2023-01-19T09:42:33.145Z,2.08
2023-01-19T09:45:33.335Z,1.91
2023-01-19T09:48:20.322Z,1.78
2023-01-19T09:51:14.030Z,1.90
2023-01-19T09:54:16.445Z,2.01
2023-01-19T09:57:09.982Z,1.94
2023-01-19T09:59:59.950Z,2.22
2023-01-19T10:03:04.446Z,2.17
2023-01-19T10:06:08.715Z,2.29
2023-01-19T10:09:13.762Z,2.35
2023-01-19T10:12:22.165Z,2.24
2023-01-19T10:15:33.130Z,2.23
2023-01-19T10:18:31.168Z,2.35
2023-01-19T10:21:38.155Z,2.13
2023-01-19T10:24:34.979Z,2.04
2023-01-19T10:27:29.524Z,1.92
2023-01-19T10:30:23.840Z,1.95
2023-01-19T10:33:13.849Z,1.76
2023-01-19T10:36:16.376Z,1.87
2023-01-19T10:39:07.630Z,1.78
2023-01-19T10:41:54.763Z,1.37
2023-01-19T10:44:42.186Z,1.46
2023-01-19T10:47:36.878Z,1.59
2023-01-19T10:50:33.110Z,1.68
2023-01-19T10:53:23.187Z,1.82
2023-01-19T10:56:37.504Z,1.59
2023-01-19T10:59:32.283Z,1.23
2023-01-19T11:02:22.478Z,1.49
2023-01-19T11:05:28.019Z,1.45
2023-01-19T11:08:23.804Z,1.51
2023-01-19T11:11:12.636Z,1.51
2023-01-19T11:14:09.282Z,1.48
2023-01-19T11:16:58.460Z,1.41
2023-01-19T11:19:55.003Z,1.76
2023-01-19T11:22:42.170Z,1.72
2023-01-19T11:25:32.968Z,1.69
2023-01-19T11:28:28.355Z,1.54
2023-01-19T11:31:15.529Z,1.65
2023-01-19T11:34:23.346Z,1.63
2023-01-19T11:37:16.263Z,1.77
2023-01-19T11:40:08.630Z,1.83
2023-01-19T11:42:55.812Z,1.75
2023-01-19T11:45:44.569Z,1.49
2023-01-19T11:48:40.589Z,1.83
2023-01-19T11:51:52.247Z,1.77
2023-01-19T11:54:52.411Z,1.74
2023-01-19T11:57:39.814Z,1.81
2023-01-19T12:00:41.418Z,1.76
2023-01-19T12:03:35.179Z,1.60
2023-01-19T12:06:33.300Z,1.81
2023-01-19T12:09:24.341Z,1.72
2023-01-19T12:12:32.505Z,1.96
2023-01-19T12:15:44.595Z,2.06
2023-01-19T12:18:41.306Z,1.80
2023-01-19T12:21:28.842Z,1.93
2023-01-19T12:24:37.742Z,2.21
2023-01-19T12:27:41.159Z,2.18
2023-01-19T12:30:29.840Z,2.02
2023-01-19T12:33:26.822Z,2.19
2023-01-19T12:36:16.837Z,1.93
2023-01-19T12:39:18.455Z,2.00
2023-01-19T12:42:14.981Z,2.08
2023-01-19T12:45:17.828Z,2.07
2023-01-19T12:48:07.073Z,2.27
2023-01-19T12:50:54.258Z,2.27
2023-01-19T12:53:55.192Z,2.08
2023-01-19T12:56:42.526Z,2.12
2023-01-19T12:59:31.404Z,1.69
2023-01-19T13:02:18.617Z,1.65
2023-01-19T13:05:17.002Z,1.56
2023-01-19T13:08:07.894Z,1.85
2023-01-19T13:11:05.577Z,1.76
2023-01-19T13:13:58.945Z,1.96
2023-01-19T13:16:58.552Z,1.33
2023-01-19T13:19:52.340Z,1.49
2023-01-19T13:23:08.233Z,1.23
2023-01-19T13:26:05.077Z,1.57
2023-01-19T13:28:58.219Z,1.43
2023-01-19T13:31:49.088Z,1.34
2023-01-19T13:34:42.734Z,1.33
2023-01-19T13:37:39.145Z,1.35
2023-01-19T13:40:34.329Z,1.30
2023-01-19T13:43:37.794Z,1.18
2023-01-19T13:46:27.325Z,1.26
2023-01-19T13:49:21.526Z,1.19
2023-01-19T13:52:20.016Z,1.22
2023-01-19T13:55:14.460Z,1.40
2023-01-19T13:58:02.189Z,1.11
2023-01-19T14:00:49.894Z,0.88
2023-01-19T14:03:37.123Z,1.07
2023-01-19T14:06:34.145Z,0.93
2023-01-19T14:09:21.686Z,0.91
2023-01-19T14:12:12.143Z,1.13
2023-01-19T14:14:59.300Z,1.05
2023-01-19T14:18:10.056Z,0.85
2023-01-19T14:21:09.216Z,1.02
2023-01-19T14:24:10.762Z,1.01
2023-01-19T14:27:20.918Z,0.95
2023-01-19T14:30:21.794Z,0.63
2023-01-19T14:33:35.583Z,0.68
2023-01-19T14:36:34.265Z,0.87
2023-01-19T14:39:24.687Z,0.48
2023-01-19T14:42:17.645Z,0.57
2023-01-19T14:45:16.254Z,0.44
2023-01-19T14:48:12.214Z,0.62
2023-01-19T14:51:04.970Z,0.52
2023-01-19T14:53:57.957Z,0.50
2023-01-19T14:56:45.849Z,0.44
2023-01-19T14:59:33.080Z,0.33
2023-01-19T15:02:20.368Z,0.40
2023-01-19T15:05:08.928Z,0.57
2023-01-19T15:07:56.298Z,0.45
2023-01-19T15:10:44.385Z,0.53
2023-01-19T15:13:31.498Z,0.06
2023-01-19T15:16:19.268Z,0.45
2023-01-19T15:19:06.401Z,0.42
2023-01-19T15:21:53.751Z,0.12
2023-01-19T15:24:41.145Z,0.34
2023-01-19T15:27:28.421Z,0.33
2023-01-19T15:30:21.751Z,0.30
2023-01-19T15:33:21.461Z,0.29
2023-01-19T15:36:18.059Z,-0.05
2023-01-19T15:39:05.676Z,0.06
2023-01-19T15:41:53.271Z,0.19
2023-01-19T15:44:40.346Z,0.38
2023-01-19T15:47:27.545Z,-0.02
2023-01-19T15:50:14.680Z,-0.19
2023-01-19T15:53:01.991Z,-0.08
2023-01-19T15:55:51.469Z,0.24
2023-01-19T15:58:38.649Z,0.00
2023-01-19T16:01:31.817Z,0.33
2023-01-19T16:04:19.073Z,0.26
2023-01-19T16:07:06.295Z,0.22
2023-01-19T16:09:53.360Z,0.19
2023-01-19T16:12:40.701Z,0.26
2023-01-19T16:15:27.910Z,0.20
2023-01-19T16:18:15.430Z,0.17
2023-01-19T16:21:02.508Z,0.21
2023-01-19T16:23:50.064Z,0.20
2023-01-19T16:26:37.197Z,0.08
2023-01-19T16:29:24.475Z,0.06
2023-01-19T16:32:11.721Z,-0.09
2023-01-19T16:34:58.976Z,0.06
2023-01-19T16:37:51.524Z,0.02
2023-01-19T16:40:39.991Z,0.27
2023-01-19T16:43:28.353Z,0.10
2023-01-19T16:46:21.481Z,0.03
2023-01-19T16:49:18.026Z,0.14
2023-01-19T16:52:06.202Z,0.18
2023-01-19T16:54:55.084Z,0.26
2023-01-19T16:57:42.452Z,0.10
2023-01-19T17:00:29.944Z,0.24
2023-01-19T17:03:17.475Z,0.18
2023-01-19T17:06:07.403Z,0.23
2023-01-19T17:08:54.751Z,0.28
2023-01-19T17:11:43.043Z,0.24
2023-01-19T17:14:30.469Z,0.13
2023-01-19T17:17:18.165Z,0.13
2023-01-19T17:20:07.675Z,0.16
2023-01-19T17:22:56.603Z,0.17
2023-01-19T17:25:43.784Z,0.16
2023-01-19T17:28:31.664Z,0.18
2023-01-19T17:31:22.350Z,0.28
2023-01-19T17:34:11.339Z,0.10
2023-01-19T17:37:03.453Z,-0.10
2023-01-19T17:39:51.605Z,0.06
2023-01-19T17:42:41.274Z,-0.03
2023-01-19T17:45:29.142Z,0.18
2023-01-19T17:48:17.801Z,-0.03
2023-01-19T17:51:07.321Z,0.21
2023-01-19T17:53:55.829Z,0.08
2023-01-19T17:56:43.662Z,0.10
2023-01-19T17:59:33.247Z,0.04
2023-01-19T18:02:24.916Z,0.04
2023-01-19T18:05:13.294Z,0.00
2023-01-19T18:08:00.932Z,-0.14
2023-01-19T18:10:56.131Z,-0.09
2023-01-19T18:13:46.849Z,-0.17
2023-01-19T18:16:35.386Z,-0.15
2023-01-19T18:19:23.539Z,-0.14
2023-01-19T18:22:11.872Z,-0.31
2023-01-19T18:25:00.029Z,-0.31
2023-01-19T18:27:48.678Z,-0.25
2023-01-19T18:30:37.506Z,-0.40
2023-01-19T18:33:26.522Z,-0.30
2023-01-19T18:36:15.460Z,-0.58
2023-01-19T18:39:04.902Z,-0.56
2023-01-19T18:41:54.203Z,-0.58
2023-01-19T18:44:42.214Z,-0.51
2023-01-19T18:47:29.830Z,-0.51
2023-01-19T18:50:20.480Z,-0.57
2023-01-19T18:53:08.287Z,-0.53
2023-01-19T18:55:58.162Z,-0.47
2023-01-19T18:58:46.659Z,-0.58
2023-01-19T19:01:35.978Z,-0.63
2023-01-19T19:04:24.190Z,-0.60
2023-01-19T19:07:12.351Z,-0.76
2023-01-19T19:10:00.681Z,-0.70
2023-01-19T19:12:48.788Z,-0.78
2023-01-19T19:15:37.365Z,-0.81
2023-01-19T19:18:25.105Z,-0.79
2023-01-19T19:21:12.970Z,-0.90
2023-01-19T19:24:01.076Z,-0.97
2023-01-19T19:26:49.180Z,-1.08
2023-01-19T19:29:38.080Z,-1.26
2023-01-19T19:32:25.814Z,-1.19
2023-01-19T19:35:15.961Z,-1.20
2023-01-19T19:38:05.229Z,-1.32
2023-01-19T19:40:55.186Z,-1.35
2023-01-19T19:43:43.775Z,-1.28
2023-01-19T19:46:31.896Z,-1.22
2023-01-19T19:49:22.125Z,-1.35
2023-01-19T19:52:09.896Z,-1.21
2023-01-19T19:54:58.150Z,-1.33
2023-01-19T19:57:46.145Z,-1.32
2023-01-19T20:00:34.199Z,-1.40
2023-01-19T20:03:22.460Z,-1.28
2023-01-19T20:06:14.401Z,-1.45
2023-01-19T20:09:02.135Z,-1.53
2023-01-19T20:11:50.720Z,-1.51
2023-01-19T20:14:42.010Z,-1.67
2023-01-19T20:17:30.604Z,-1.69
2023-01-19T20:20:18.959Z,-1.48
2023-01-19T20:23:06.800Z,-1.74
2023-01-19T20:25:54.425Z,-1.51
2023-01-19T20:28:45.210Z,-1.41
2023-01-19T20:31:35.951Z,-1.43
2023-01-19T20:34:28.142Z,-1.78
2023-01-19T20:37:15.944Z,-1.59
2023-01-19T20:40:04.632Z,-1.76
2023-01-19T20:42:52.641Z,-1.66
2023-01-19T20:45:40.175Z,-1.74
2023-01-19T20:48:28.200Z,-1.45
2023-01-19T20:51:16.512Z,-1.40
2023-01-19T20:54:05.036Z,-1.34
2023-01-19T20:56:52.826Z,-1.35
2023-01-19T20:59:41.402Z,-1.29
2023-01-19T21:02:29.496Z,-1.24
2023-01-19T21:05:17.410Z,-1.18
2023-01-19T21:08:05.666Z,-1.32
2023-01-19T21:10:56.731Z,-1.29
2023-01-19T21:13:43.868Z,-1.38
2023-01-19T21:16:33.618Z,-1.48
2023-01-19T21:19:20.992Z,-1.49
2023-01-19T21:22:08.122Z,-1.48
2023-01-19T21:24:55.318Z,-1.47
2023-01-19T21:27:42.959Z,-1.32
2023-01-19T21:30:30.175Z,-1.43
2023-01-19T21:33:18.115Z,-1.42
2023-01-19T21:36:05.694Z,-1.43
2023-01-19T21:38:55.573Z,-1.44
2023-01-19T21:41:43.893Z,-1.62
2023-01-19T21:44:34.160Z,-1.70
2023-01-19T21:47:21.549Z,-1.60
2023-01-19T21:50:09.340Z,-1.66
2023-01-19T21:52:57.331Z,-1.82
2023-01-19T21:55:45.738Z,-1.74
2023-01-19T21:58:32.821Z,-1.80
2023-01-19T22:01:20.940Z,-1.86
2023-01-19T22:04:08.167Z,-1.92
2023-01-19T22:06:55.206Z,-1.93
2023-01-19T22:09:42.328Z,-2.03
2023-01-19T22:12:29.531Z,-2.18
2023-01-19T22:15:16.706Z,-1.96
2023-01-19T22:18:04.451Z,-2.08
2023-01-19T22:20:51.467Z,-2.24
2023-01-19T22:23:39.257Z,-2.39
2023-01-19T22:26:28.127Z,-2.43
2023-01-19T22:29:15.294Z,-2.51
2023-01-19T22:32:02.411Z,-2.43
2023-01-19T22:34:49.535Z,-2.54
2023-01-19T22:37:37.254Z,-2.64
2023-01-19T22:40:24.317Z,-2.74
2023-01-19T22:43:11.424Z,-2.79
2023-01-19T22:45:59.213Z,-2.84
2023-01-19T22:48:47.726Z,-2.82
2023-01-19T22:51:35.757Z,-2.81
2023-01-19T22:54:23.350Z,-2.88
2023-01-19T22:57:11.976Z,-3.05
2023-01-19T22:59:59.251Z,-3.06
2023-01-19T23:02:46.483Z,-3.19
2023-01-19T23:05:37.177Z,-3.25
2023-01-19T23:08:24.913Z,-3.37
2023-01-19T23:11:15.619Z,-3.52
2023-01-19T23:14:03.928Z,-3.54
2023-01-19T23:16:51.222Z,-3.57
2023-01-19T23:19:38.334Z,-3.45
2023-01-19T23:22:25.581Z,-3.56
2023-01-19T23:25:12.857Z,-3.73
2023-01-19T23:27:59.986Z,-3.75
2023-01-19T23:30:47.190Z,-3.73
2023-01-19T23:33:34.282Z,-3.72
2023-01-19T23:36:22.977Z,-3.70
2023-01-19T23:39:28.414Z,-3.82
2023-01-19T23:42:15.519Z,-3.89
2023-01-19T23:45:02.698Z,-3.95
2023-01-19T23:47:49.864Z,-3.83
2023-01-19T23:50:40.775Z,-3.87
2023-01-19T23:53:27.828Z,-3.97
2023-01-19T23:56:17.514Z,-3.96
2023-01-19T23:59:07.401Z,-3.84
